createdAt,value
2024-03-05T00:00:13.335Z,19.23
2024-03-05T00:02:44.712Z,20.25
2024-03-05T00:05:15.479Z,19.75
2024-03-05T00:07:44.648Z,19.98
2024-03-05T00:10:14.355Z,20.20
2024-03-05T00:12:41.984Z,20.33
2024-03-05T00:15:12.346Z,20.60
2024-03-05T00:17:42.189Z,19.95
2024-03-05T00:20:19.781Z,19.38
2024-03-05T00:22:49.223Z,19.77
2024-03-05T00:25:18.018Z,19.90
2024-03-05T00:27:46.805Z,20.42
2024-03-05T00:30:16.389Z,19.90
2024-03-05T00:32:46.786Z,19.58
2024-03-05T00:35:15.264Z,20.63
2024-03-05T00:37:44.006Z,19.27
2024-03-05T00:40:13.604Z,20.08
2024-03-05T00:42:41.944Z,20.27
2024-03-05T00:45:12.129Z,20.98
2024-03-05T00:47:40.758Z,20.38
2024-03-05T00:50:14.797Z,19.83
2024-03-05T00:52:43.873Z,20.85
2024-03-05T00:55:12.423Z,21.00
2024-03-05T00:57:40.984Z,21.55
2024-03-05T01:00:10.729Z,21.25
2024-03-05T01:02:39.032Z,21.00
2024-03-05T01:05:11.123Z,20.88
2024-03-05T01:07:41.196Z,21.05
2024-03-05T01:10:11.101Z,21.27
2024-03-05T01:12:39.606Z,21.33
2024-03-05T01:15:08.635Z,21.45
2024-03-05T01:17:36.956Z,21.48
2024-03-05T01:20:05.848Z,21.25
2024-03-05T01:22:34.858Z,20.65
2024-03-05T01:25:04.864Z,20.98
2024-03-05T01:27:33.229Z,21.63
2024-03-05T01:30:01.635Z,21.75
2024-03-05T01:32:30.816Z,22.98
2024-03-05T01:34:59.213Z,21.95
2024-03-05T01:37:27.667Z,23.27
2024-03-05T01:39:56.013Z,23.42
2024-03-05T01:42:25.778Z,22.38
2024-03-05T01:44:54.256Z,22.70
2024-03-05T01:47:23.095Z,21.95
2024-03-05T01:49:51.745Z,22.25
2024-03-05T01:52:20.748Z,22.70
2024-03-05T01:54:49.696Z,22.25
2024-03-05T01:57:18.303Z,22.40
2024-03-05T01:59:48.405Z,23.65
2024-03-05T02:02:16.844Z,22.83
2024-03-05T02:04:47.041Z,22.95
2024-03-05T02:07:15.531Z,24.58
2024-03-05T02:09:43.882Z,23.80
2024-03-05T02:12:12.310Z,23.55
2024-03-05T02:14:40.677Z,24.13
2024-03-05T02:17:11.630Z,24.13
2024-03-05T02:19:48.377Z,23.45
2024-03-05T02:22:18.349Z,24.00
2024-03-05T02:24:46.668Z,23.85
2024-03-05T02:27:23.589Z,23.80
2024-03-05T02:29:55.508Z,23.40
2024-03-05T02:32:24.510Z,24.08
2024-03-05T02:34:55.510Z,24.83
2024-03-05T02:37:25.672Z,24.58
2024-03-05T02:39:54.145Z,23.80
2024-03-05T02:42:22.519Z,24.00
2024-03-05T02:44:50.891Z,25.38
2024-03-05T02:47:19.188Z,24.52
2024-03-05T02:49:47.530Z,25.02
2024-03-05T02:52:16.238Z,24.45
2024-03-05T02:54:46.785Z,26.05
2024-03-05T02:57:15.425Z,25.73
2024-03-05T02:59:43.750Z,25.70
2024-03-05T03:02:12.248Z,25.63
2024-03-05T03:04:40.639Z,24.42
2024-03-05T03:07:09.031Z,25.23
2024-03-05T03:09:37.567Z,26.45
2024-03-05T03:12:07.971Z,27.17
2024-03-05T03:14:36.300Z,26.23
2024-03-05T03:17:04.621Z,26.20
2024-03-05T03:19:33.198Z,25.13
2024-03-05T03:22:01.813Z,25.83
2024-03-05T03:24:30.242Z,27.00
2024-03-05T03:26:58.657Z,26.08
2024-03-05T03:29:28.754Z,27.15
2024-03-05T03:31:57.638Z,26.30
2024-03-05T03:34:26.126Z,27.25
2024-03-05T03:36:55.411Z,28.48
2024-03-05T03:39:26.012Z,27.63
2024-03-05T03:41:56.254Z,27.80
2024-03-05T03:44:25.053Z,27.58
2024-03-05T03:46:54.983Z,29.15
2024-03-05T03:49:26.059Z,28.10
2024-03-05T03:51:55.038Z,27.63
2024-03-05T03:54:24.130Z,28.40
2024-03-05T03:56:53.035Z,27.00
2024-03-05T03:59:22.098Z,27.42
2024-03-05T04:01:51.608Z,27.20
2024-03-05T04:04:21.538Z,27.10
2024-03-05T04:06:49.974Z,27.88
2024-03-05T04:09:19.512Z,27.00
2024-03-05T04:11:47.926Z,27.05
2024-03-05T04:14:16.942Z,26.50
2024-03-05T04:16:45.491Z,26.70
2024-03-05T04:19:13.819Z,27.00
2024-03-05T04:21:44.201Z,27.60
2024-03-05T04:24:14.720Z,27.17
2024-03-05T04:26:44.240Z,28.00
2024-03-05T04:29:18.084Z,27.80
2024-03-05T04:31:56.273Z,29.58
2024-03-05T04:34:24.804Z,28.23
2024-03-05T04:36:56.268Z,27.73
2024-03-05T04:39:26.558Z,29.48
2024-03-05T04:41:54.885Z,26.98
2024-03-05T04:44:25.669Z,27.40
2024-03-05T04:46:54.222Z,27.67
2024-03-05T04:49:22.602Z,28.58
2024-03-05T04:51:51.254Z,27.85
2024-03-05T04:54:22.070Z,28.10
2024-03-05T04:56:50.432Z,27.98
2024-03-05T04:59:17.735Z,28.42
2024-03-05T05:01:46.126Z,26.88
2024-03-05T05:04:14.640Z,27.75
2024-03-05T05:06:43.354Z,26.98
2024-03-05T05:09:12.026Z,27.67
2024-03-05T05:11:41.763Z,27.40
2024-03-05T05:14:12.329Z,27.52
2024-03-05T05:16:40.798Z,27.08
2024-03-05T05:19:12.189Z,27.45
2024-03-05T05:21:42.830Z,26.77
2024-03-05T05:24:11.166Z,27.40
2024-03-05T05:26:44.010Z,27.55
2024-03-05T05:29:20.229Z,25.80
2024-03-05T05:31:55.322Z,26.80
2024-03-05T05:34:23.676Z,28.52
2024-03-05T05:36:52.029Z,26.88
2024-03-05T05:39:25.443Z,26.98
2024-03-05T05:41:55.215Z,26.02
2024-03-05T05:44:23.565Z,27.92
2024-03-05T05:46:52.050Z,28.17
2024-03-05T05:49:22.266Z,26.70
2024-03-05T05:51:51.084Z,25.73
2024-03-05T05:54:22.589Z,24.55
2024-03-05T05:56:51.562Z,24.10
2024-03-05T05:59:21.645Z,24.95
2024-03-05T06:01:50.050Z,24.02
2024-03-05T06:04:18.418Z,22.08
2024-03-05T06:06:47.075Z,22.70
2024-03-05T06:09:23.434Z,21.50
2024-03-05T06:11:51.775Z,21.63
2024-03-05T06:14:21.932Z,20.65
2024-03-05T06:16:50.411Z,20.75
2024-03-05T06:19:18.817Z,20.70
2024-03-05T06:21:47.195Z,20.63
2024-03-05T06:24:16.062Z,21.17
2024-03-05T06:26:44.365Z,19.75
2024-03-05T06:29:13.017Z,21.33
2024-03-05T06:31:42.717Z,18.67
2024-03-05T06:34:12.339Z,19.17
2024-03-05T06:36:40.732Z,20.00
2024-03-05T06:39:19.538Z,21.88
2024-03-05T06:41:49.932Z,20.05
2024-03-05T06:44:23.187Z,19.10
2024-03-05T06:46:52.943Z,19.27
2024-03-05T06:49:28.832Z,18.45
2024-03-05T06:52:17.746Z,17.92
2024-03-05T06:55:03.521Z,17.73
2024-03-05T06:57:33.759Z,17.98
2024-03-05T07:00:05.053Z,17.48
2024-03-05T07:02:34.757Z,17.27
2024-03-05T07:05:03.892Z,17.40
2024-03-05T07:07:34.502Z,17.75
2024-03-05T07:10:14.944Z,16.35
2024-03-05T07:12:46.396Z,17.17
2024-03-05T07:15:16.188Z,16.83
2024-03-05T07:17:46.095Z,18.75
2024-03-05T07:20:20.631Z,18.08
2024-03-05T07:22:49.184Z,17.50
2024-03-05T07:25:17.641Z,18.20
2024-03-05T07:27:46.551Z,18.92
2024-03-05T07:30:17.191Z,19.13
2024-03-05T07:32:47.565Z,18.00
2024-03-05T07:35:17.048Z,18.05
2024-03-05T07:37:47.852Z,18.33
2024-03-05T07:40:21.597Z,19.27
2024-03-05T07:42:53.003Z,19.02
2024-03-05T07:45:22.633Z,19.13
2024-03-05T07:47:53.045Z,17.88
2024-03-05T07:50:21.471Z,22.27
2024-03-05T07:52:51.899Z,19.05
2024-03-05T07:55:28.937Z,20.65
2024-03-05T07:58:00.142Z,20.48
2024-03-05T08:00:28.624Z,22.70
2024-03-05T08:02:59.038Z,21.80
2024-03-05T08:05:27.755Z,20.60
2024-03-05T08:07:58.449Z,21.83
2024-03-05T08:10:27.962Z,20.80
2024-03-05T08:12:57.752Z,21.02
2024-03-05T08:15:27.615Z,19.73
2024-03-05T08:17:58.292Z,20.13
2024-03-05T08:20:27.998Z,21.50
2024-03-05T08:22:57.355Z,22.63
2024-03-05T08:25:26.444Z,20.95
2024-03-05T08:27:56.576Z,22.48
2024-03-05T08:30:26.128Z,21.73
2024-03-05T08:32:56.526Z,21.50
2024-03-05T08:35:27.084Z,22.77
2024-03-05T08:37:55.540Z,22.08
2024-03-05T08:40:23.999Z,23.42
2024-03-05T08:42:55.387Z,21.67
2024-03-05T08:45:25.272Z,23.00
2024-03-05T08:47:54.526Z,22.73
2024-03-05T08:50:23.815Z,23.73
2024-03-05T08:52:53.632Z,24.77
2024-03-05T08:55:22.906Z,26.58
2024-03-05T08:57:53.215Z,24.05
2024-03-05T09:00:32.505Z,24.75
2024-03-05T09:03:10.733Z,25.88
2024-03-05T09:05:41.217Z,26.75
2024-03-05T09:08:12.674Z,29.27
2024-03-05T09:10:41.278Z,29.92
2024-03-05T09:13:10.108Z,30.45
2024-03-05T09:15:42.709Z,29.98
2024-03-05T09:18:14.672Z,30.00
2024-03-05T09:20:44.542Z,29.58
2024-03-05T09:23:14.708Z,30.85
2024-03-05T09:25:44.181Z,30.25
2024-03-05T09:28:13.028Z,31.40
2024-03-05T09:30:41.959Z,30.60
2024-03-05T09:33:11.881Z,31.17
2024-03-05T09:35:41.605Z,30.60
2024-03-05T09:38:10.382Z,31.52
2024-03-05T09:40:41.738Z,32.90
2024-03-05T09:43:10.465Z,31.83
2024-03-05T09:45:39.609Z,29.48
2024-03-05T09:48:10.166Z,28.70
2024-03-05T09:50:39.108Z,28.33
2024-03-05T09:53:07.866Z,27.13
2024-03-05T09:55:36.348Z,27.80
2024-03-05T09:58:10.894Z,27.85
2024-03-05T10:00:39.811Z,28.35
2024-03-05T10:03:10.318Z,28.67
2024-03-05T10:05:39.569Z,26.90
2024-03-05T10:08:12.486Z,23.63
2024-03-05T10:10:41.665Z,26.85
2024-03-05T10:13:12.831Z,27.42
2024-03-05T10:15:44.323Z,26.90
2024-03-05T10:18:12.830Z,26.00
2024-03-05T10:20:41.247Z,27.38
2024-03-05T10:23:11.056Z,21.88
2024-03-05T10:25:41.544Z,21.50
2024-03-05T10:28:10.566Z,20.75
2024-03-05T10:30:43.872Z,21.50
2024-03-05T10:33:14.055Z,24.75
2024-03-05T10:35:43.291Z,28.75
2024-03-05T10:38:15.932Z,28.23
2024-03-05T10:40:47.377Z,26.55
2024-03-05T10:43:19.842Z,25.85
2024-03-05T10:45:50.079Z,27.10
2024-03-05T10:48:22.491Z,28.00
2024-03-05T10:50:53.914Z,28.25
2024-03-05T10:53:22.405Z,30.50
2024-03-05T10:55:54.479Z,27.58
2024-03-05T10:58:49.253Z,28.98
2024-03-05T11:01:22.374Z,28.30
2024-03-05T11:03:56.456Z,30.45
2024-03-05T11:06:25.420Z,29.50
2024-03-05T11:08:53.810Z,28.80
2024-03-05T11:11:24.450Z,29.35
2024-03-05T11:13:55.150Z,28.70
2024-03-05T11:16:29.254Z,26.65
2024-03-05T11:19:00.109Z,26.38
2024-03-05T11:21:29.469Z,26.63
2024-03-05T11:23:59.001Z,26.42
2024-03-05T11:26:29.829Z,28.02
2024-03-05T11:29:08.147Z,27.13
2024-03-05T11:31:39.947Z,28.45
2024-03-05T11:34:14.387Z,28.58
2024-03-05T11:36:42.874Z,26.85
2024-03-05T11:39:16.071Z,26.95
2024-03-05T11:41:46.246Z,28.00
2024-03-05T11:44:15.919Z,28.02
2024-03-05T11:46:47.913Z,28.45
2024-03-05T11:49:17.441Z,28.52
2024-03-05T11:51:47.491Z,28.63
2024-03-05T11:54:20.019Z,29.85
2024-03-05T11:56:58.676Z,29.92
2024-03-05T11:59:35.549Z,30.52
2024-03-05T12:02:10.975Z,30.17
2024-03-05T12:04:39.692Z,28.95
2024-03-05T12:07:09.075Z,27.00
2024-03-05T12:09:40.451Z,27.65
2024-03-05T12:12:12.114Z,27.13
2024-03-05T12:14:42.683Z,29.35
2024-03-05T12:17:14.147Z,26.73
2024-03-05T12:19:43.341Z,27.80
2024-03-05T12:22:11.613Z,25.00
2024-03-05T12:24:40.627Z,28.10
2024-03-05T12:27:09.393Z,25.42
2024-03-05T12:29:39.581Z,27.10
2024-03-05T12:32:10.313Z,25.35
2024-03-05T12:34:42.653Z,25.38
2024-03-05T12:37:12.869Z,25.10
2024-03-05T12:39:41.897Z,25.40
2024-03-05T12:42:12.372Z,26.45
2024-03-05T12:44:40.723Z,27.13
2024-03-05T12:47:14.573Z,26.30
2024-03-05T12:49:47.947Z,27.00
2024-03-05T12:52:21.414Z,26.40
2024-03-05T12:54:59.063Z,23.90
2024-03-05T12:57:28.216Z,22.58
2024-03-05T12:59:59.130Z,20.40
2024-03-05T13:02:27.759Z,21.08
2024-03-05T13:04:59.346Z,22.05
2024-03-05T13:07:28.595Z,20.05
2024-03-05T13:09:57.104Z,19.45
2024-03-05T13:12:25.458Z,18.27
2024-03-05T13:14:53.812Z,20.35
2024-03-05T13:17:22.373Z,22.55
2024-03-05T13:19:50.730Z,25.38
2024-03-05T13:22:21.763Z,25.35
2024-03-05T13:24:50.178Z,28.58
2024-03-05T13:27:18.581Z,25.80
2024-03-05T13:29:47.551Z,27.27
2024-03-05T13:32:16.925Z,25.88
2024-03-05T13:34:45.683Z,26.42
2024-03-05T13:37:14.056Z,23.38
2024-03-05T13:39:47.154Z,23.60
2024-03-05T13:42:15.633Z,21.95
2024-03-05T13:44:44.166Z,22.02
2024-03-05T13:47:12.822Z,20.30
2024-03-05T13:49:41.282Z,19.10
2024-03-05T13:52:10.182Z,18.92
2024-03-05T13:54:39.385Z,17.27
2024-03-05T13:57:11.284Z,16.27
2024-03-05T13:59:39.639Z,17.02
2024-03-05T14:02:09.887Z,17.88
2024-03-05T14:04:38.322Z,18.42
2024-03-05T14:07:07.421Z,18.05
2024-03-05T14:09:35.956Z,18.60
2024-03-05T14:12:04.455Z,18.33
2024-03-05T14:14:34.940Z,19.92
2024-03-05T14:17:03.561Z,18.77
2024-03-05T14:19:32.345Z,19.65
2024-03-05T14:22:01.585Z,19.90
2024-03-05T14:24:30.657Z,20.73
2024-03-05T14:27:00.874Z,20.25
2024-03-05T14:29:30.369Z,21.02
2024-03-05T14:32:00.177Z,20.02
2024-03-05T14:34:29.119Z,19.55
2024-03-05T14:36:57.467Z,19.45
2024-03-05T14:39:25.751Z,19.15
2024-03-05T14:41:54.273Z,19.23
2024-03-05T14:44:23.716Z,18.38
2024-03-05T14:46:52.131Z,17.83
2024-03-05T14:49:21.904Z,18.05
2024-03-05T14:51:49.316Z,17.85
2024-03-05T14:54:18.735Z,18.05
2024-03-05T14:56:47.027Z,18.15
2024-03-05T14:59:15.479Z,21.75
2024-03-05T15:01:44.037Z,18.92
2024-03-05T15:04:12.412Z,18.00
2024-03-05T15:06:42.576Z,19.50
2024-03-05T15:09:13.346Z,17.35
2024-03-05T15:11:41.980Z,17.73
2024-03-05T15:14:10.483Z,16.05
2024-03-05T15:16:39.013Z,15.93
2024-03-05T15:19:07.374Z,15.40
2024-03-05T15:21:35.696Z,16.77
2024-03-05T15:24:06.096Z,17.10
2024-03-05T15:26:34.663Z,16.95
2024-03-05T15:29:03.061Z,16.40
2024-03-05T15:31:33.564Z,16.75
2024-03-05T15:34:01.938Z,17.08
2024-03-05T15:36:30.541Z,17.70
2024-03-05T15:38:58.905Z,20.38
2024-03-05T15:41:28.529Z,17.38
2024-03-05T15:43:56.929Z,15.30
2024-03-05T15:46:25.309Z,15.68
2024-03-05T15:48:53.655Z,16.55
2024-03-05T15:51:22.130Z,17.73
2024-03-05T15:53:51.445Z,15.77
2024-03-05T15:56:25.589Z,15.75
2024-03-05T15:59:14.795Z,15.32
2024-03-05T16:01:43.231Z,15.65
2024-03-05T16:04:30.222Z,15.18
2024-03-05T16:07:01.198Z,14.73
2024-03-05T16:09:29.558Z,14.15
2024-03-05T16:11:59.164Z,14.57
2024-03-05T16:14:29.636Z,14.40
2024-03-05T16:16:58.002Z,14.85
2024-03-05T16:19:26.663Z,16.10
2024-03-05T16:21:57.785Z,16.75
2024-03-05T16:24:26.504Z,15.00
2024-03-05T16:26:54.946Z,16.05
2024-03-05T16:29:23.458Z,15.52
2024-03-05T16:31:53.795Z,16.70
2024-03-05T16:34:23.474Z,16.88
2024-03-05T16:36:51.984Z,18.10
2024-03-05T16:39:20.706Z,17.77
2024-03-05T16:41:49.207Z,19.30
2024-03-05T16:44:17.672Z,18.30
2024-03-05T16:46:47.631Z,18.67
2024-03-05T16:49:17.860Z,19.40
2024-03-05T16:51:46.255Z,20.52
2024-03-05T16:54:15.626Z,20.42
2024-03-05T16:56:45.342Z,20.52
2024-03-05T16:59:14.202Z,21.00
2024-03-05T17:01:42.949Z,22.20
2024-03-05T17:04:15.385Z,21.08
2024-03-05T17:06:46.814Z,21.27
2024-03-05T17:09:15.964Z,20.77
2024-03-05T17:11:45.856Z,21.77
2024-03-05T17:14:14.317Z,22.45
2024-03-05T17:16:46.261Z,22.17
2024-03-05T17:19:14.914Z,23.17
2024-03-05T17:21:45.392Z,20.92
2024-03-05T17:24:14.584Z,22.15
2024-03-05T17:26:43.059Z,21.98
2024-03-05T17:31:40.453Z,21.27
2024-03-05T17:34:09.867Z,21.90
2024-03-05T17:36:38.365Z,22.90
2024-03-05T17:39:11.647Z,21.90
2024-03-05T17:41:40.228Z,21.67
2024-03-05T17:44:10.314Z,22.35
2024-03-05T17:46:39.661Z,23.10
2024-03-05T17:49:08.552Z,23.40
2024-03-05T17:51:37.974Z,22.63
2024-03-05T17:54:09.044Z,22.02
2024-03-05T17:56:37.390Z,23.10
2024-03-05T17:59:06.336Z,22.77
2024-03-05T18:01:36.480Z,22.70
2024-03-05T18:04:05.908Z,22.10
2024-03-05T18:06:34.221Z,24.05
2024-03-05T18:09:02.539Z,25.40
2024-03-05T18:11:32.779Z,24.98
2024-03-05T18:14:01.317Z,24.20
2024-03-05T18:16:29.662Z,25.20
2024-03-05T18:18:59.238Z,24.80
2024-03-05T18:21:27.839Z,25.48
2024-03-05T18:23:57.913Z,24.38
2024-03-05T18:26:27.602Z,25.58
2024-03-05T18:28:57.349Z,25.50
2024-03-05T18:31:31.979Z,24.88
2024-03-05T18:34:00.559Z,24.90
2024-03-05T18:36:28.871Z,24.27
2024-03-05T18:38:58.865Z,25.50
2024-03-05T18:41:27.370Z,24.98
2024-03-05T18:43:59.870Z,25.85
2024-03-05T18:46:28.455Z,25.38
2024-03-05T18:48:58.352Z,27.42
2024-03-05T18:51:28.889Z,25.65
2024-03-05T18:53:57.541Z,24.65
2024-03-05T18:56:25.967Z,24.70
2024-03-05T18:58:58.212Z,24.35
2024-03-05T19:01:29.279Z,22.90
2024-03-05T19:04:04.997Z,25.13
2024-03-05T19:06:37.577Z,28.42
2024-03-05T19:09:06.770Z,31.38
2024-03-05T19:11:35.237Z,31.60
2024-03-05T19:14:05.722Z,31.80
2024-03-05T19:16:37.010Z,30.52
2024-03-05T19:19:05.925Z,30.27
2024-03-05T19:21:34.380Z,30.75
2024-03-05T19:24:02.767Z,31.65
2024-03-05T19:26:31.151Z,31.80
2024-03-05T19:28:59.913Z,33.10
2024-03-05T19:31:28.329Z,33.63
2024-03-05T19:33:59.580Z,33.25
2024-03-05T19:36:27.963Z,34.17
2024-03-05T19:38:58.293Z,32.60
2024-03-05T19:41:26.844Z,33.78
2024-03-05T19:43:58.344Z,32.38
2024-03-05T19:46:27.199Z,34.28
2024-03-05T19:48:56.718Z,34.15
2024-03-05T19:51:26.978Z,35.30
2024-03-05T19:53:55.353Z,34.83
2024-03-05T19:56:23.708Z,34.63
2024-03-05T19:58:52.592Z,34.97
2024-03-05T20:01:21.806Z,33.97
2024-03-05T20:03:50.436Z,33.60
2024-03-05T20:06:19.527Z,35.20
2024-03-05T20:08:49.660Z,34.10
2024-03-05T20:11:18.468Z,34.58
2024-03-05T20:13:46.923Z,36.33
2024-03-05T20:16:15.832Z,35.83
2024-03-05T20:18:44.278Z,35.35
2024-03-05T20:21:13.056Z,35.65
2024-03-05T20:23:42.764Z,36.55
2024-03-05T20:26:12.582Z,34.42
2024-03-05T20:28:40.932Z,34.63
2024-03-05T20:31:11.037Z,36.35
2024-03-05T20:33:41.527Z,35.90
2024-03-05T20:36:10.916Z,42.10
2024-03-05T20:38:39.378Z,37.63
2024-03-05T20:41:09.564Z,35.53
2024-03-05T20:43:39.906Z,36.58
2024-03-05T20:46:10.880Z,36.45
2024-03-05T20:48:39.433Z,36.33
2024-03-05T20:51:08.026Z,36.45
2024-03-05T20:53:38.311Z,37.13
2024-03-05T20:56:07.519Z,37.40
2024-03-05T20:58:38.796Z,37.15
2024-03-05T21:01:09.671Z,36.67
2024-03-05T21:03:38.290Z,36.67
2024-03-05T21:06:06.777Z,36.55
2024-03-05T21:08:35.248Z,38.10
2024-03-05T21:11:03.731Z,36.55
2024-03-05T21:13:34.397Z,36.67
2024-03-05T21:16:03.011Z,35.70
2024-03-05T21:18:32.807Z,34.80
2024-03-05T21:21:01.198Z,34.45
2024-03-05T21:23:32.048Z,34.92
2024-03-05T21:26:13.238Z,35.10
2024-03-05T21:28:49.010Z,35.42
2024-03-05T21:31:19.486Z,35.97
2024-03-05T21:33:50.232Z,36.10
2024-03-05T21:36:18.689Z,36.08
2024-03-05T21:38:47.129Z,34.70
2024-03-05T21:41:16.731Z,34.88
2024-03-05T21:43:45.666Z,38.38
2024-03-05T21:46:14.097Z,37.13
2024-03-05T21:48:44.249Z,37.72
2024-03-05T21:51:16.533Z,36.92
2024-03-05T21:53:45.610Z,38.53
2024-03-05T21:56:13.997Z,36.00
2024-03-05T21:58:43.941Z,36.75
2024-03-05T22:01:12.760Z,36.00
2024-03-05T22:03:41.263Z,36.45
2024-03-05T22:06:15.508Z,36.50
2024-03-05T22:08:50.160Z,36.63
2024-03-05T22:11:18.834Z,36.10
2024-03-05T22:13:48.432Z,34.72
2024-03-05T22:16:16.924Z,35.80
2024-03-05T22:18:46.778Z,34.05
2024-03-05T22:21:15.310Z,34.17
2024-03-05T22:23:43.743Z,33.15
2024-03-05T22:26:13.493Z,33.85
2024-03-05T22:28:41.857Z,33.55
2024-03-05T22:31:11.114Z,31.88
2024-03-05T22:33:39.533Z,33.50
2024-03-05T22:36:08.443Z,33.15
2024-03-05T22:38:36.830Z,32.65
2024-03-05T22:41:05.588Z,32.75
2024-03-05T22:43:35.373Z,32.58
2024-03-05T22:46:04.574Z,32.63
2024-03-05T22:48:33.056Z,31.95
2024-03-05T22:51:03.937Z,33.65
2024-03-05T22:53:32.391Z,33.05
2024-03-05T22:56:01.055Z,31.80
2024-03-05T22:58:29.869Z,31.48
2024-03-05T23:01:04.132Z,32.30
2024-03-05T23:03:32.674Z,31.10
2024-03-05T23:06:04.972Z,31.70
2024-03-05T23:08:37.433Z,32.10
2024-03-05T23:11:05.168Z,30.50
2024-03-05T23:13:33.718Z,30.63
2024-03-05T23:16:03.452Z,29.85
2024-03-05T23:18:31.719Z,31.77
2024-03-05T23:21:00.065Z,32.00
2024-03-05T23:23:28.436Z,30.90
2024-03-05T23:25:56.815Z,31.83
2024-03-05T23:28:25.959Z,33.40
2024-03-05T23:30:54.530Z,31.98
2024-03-05T23:33:24.260Z,30.60
2024-03-05T23:35:52.650Z,30.88
2024-03-05T23:38:21.915Z,31.23
2024-03-05T23:43:18.734Z,30.80
2024-03-05T23:45:47.075Z,30.65
2024-03-05T23:48:15.562Z,31.80
2024-03-05T23:50:45.359Z,31.20
2024-03-05T23:53:14.237Z,31.33
2024-03-05T23:55:42.704Z,29.30
2024-03-05T23:58:11.148Z,29.33
